createdAt,value
2018-12-01T00:00:27.415Z,1.4
2018-12-01T00:01:36.600Z,1.3
2018-12-01T00:02:45.786Z,1.3
2018-12-01T00:03:54.970Z,1.4
2018-12-01T00:05:04.141Z,1.4
2018-12-01T00:06:13.321Z,1.4
2018-12-01T00:07:22.520Z,1.3
2018-12-01T00:08:31.723Z,1.3
2018-12-01T00:09:40.926Z,1.4
2018-12-01T00:10:50.085Z,1.4
2018-12-01T00:11:59.251Z,1.4
2018-12-01T00:13:08.452Z,1.3
2018-12-01T00:14:17.603Z,1.3
2018-12-01T00:15:26.869Z,1.3
2018-12-01T00:16:36.808Z,1.3
2018-12-01T00:17:45.161Z,1.3
2018-12-01T00:18:54.414Z,1.3
2018-12-01T00:20:03.529Z,1.3
2018-12-01T00:21:14.297Z,1.3
2018-12-01T00:22:22.552Z,1.3
2018-12-01T00:23:31.078Z,1.3
2018-12-01T00:24:41.558Z,1.3
2018-12-01T00:25:49.478Z,1.4
2018-12-01T00:26:59.399Z,1.3
2018-12-01T00:28:09.492Z,1.3
2018-12-01T00:29:16.996Z,1.3
2018-12-01T00:30:30.679Z,1.3
2018-12-01T00:31:35.431Z,1.3
2018-12-01T00:32:44.542Z,1.3
2018-12-01T00:33:53.869Z,1.3
2018-12-01T00:35:03.121Z,1.4
2018-12-01T00:36:12.120Z,1.4
2018-12-01T00:37:21.414Z,1.4
2018-12-01T00:38:30.502Z,1.4
2018-12-01T00:39:39.783Z,1.4
2018-12-01T00:40:48.870Z,1.4
2018-12-01T00:41:58.002Z,1.4
2018-12-01T00:43:07.202Z,1.4
2018-12-01T00:44:16.372Z,1.4
2018-12-01T00:45:25.557Z,1.4
2018-12-01T00:46:34.742Z,1.4
2018-12-01T00:47:43.933Z,1.4
2018-12-01T00:48:53.133Z,1.4
2018-12-01T00:50:02.294Z,1.4
2018-12-01T00:51:11.471Z,1.4
2018-12-01T00:52:20.665Z,1.4
2018-12-01T00:53:29.855Z,1.3
2018-12-01T00:54:39.022Z,1.4
2018-12-01T00:55:48.317Z,1.4
2018-12-01T00:56:57.402Z,1.3
2018-12-01T00:58:07.192Z,1.3
2018-12-01T00:59:15.836Z,1.4
2018-12-01T01:00:24.941Z,1.4
2018-12-01T01:01:34.119Z,1.4
2018-12-01T01:02:43.312Z,1.4
2018-12-01T01:03:52.724Z,1.4
2018-12-01T01:05:01.685Z,1.4
2018-12-01T01:06:10.871Z,1.4
2018-12-01T01:07:20.042Z,1.4
2018-12-01T01:08:29.232Z,1.4
2018-12-01T01:09:38.439Z,1.4
2018-12-01T01:10:47.701Z,1.4
2018-12-01T01:11:56.881Z,1.4
2018-12-01T01:13:05.965Z,1.4
2018-12-01T01:14:15.268Z,1.4
2018-12-01T01:15:24.327Z,1.4
2018-12-01T01:16:33.491Z,1.4
2018-12-01T01:17:42.689Z,1.4
2018-12-01T01:18:51.872Z,1.4
2018-12-01T01:20:01.041Z,1.4
2018-12-01T01:21:10.233Z,1.4
2018-12-01T01:22:19.417Z,1.4
2018-12-01T01:23:28.648Z,1.4
2018-12-01T01:24:37.814Z,1.4
2018-12-01T01:25:46.976Z,1.4
2018-12-01T01:26:56.243Z,1.4
2018-12-01T01:28:05.513Z,1.4
2018-12-01T01:29:14.534Z,1.4
2018-12-01T01:30:23.907Z,1.4
2018-12-01T01:31:32.948Z,1.4
2018-12-01T01:32:42.079Z,1.4
2018-12-01T01:33:51.377Z,1.4
2018-12-01T01:35:00.610Z,1.5
2018-12-01T01:36:10.603Z,1.5
2018-12-01T01:37:18.837Z,1.5
2018-12-01T01:38:27.997Z,1.5
2018-12-01T01:39:37.213Z,1.5
2018-12-01T01:40:46.365Z,1.4
2018-12-01T01:41:55.577Z,1.4
2018-12-01T01:43:04.761Z,1.4
2018-12-01T01:44:13.932Z,1.4
2018-12-01T01:45:23.129Z,1.4
2018-12-01T01:46:32.651Z,1.4
2018-12-01T01:47:41.483Z,1.4
2018-12-01T01:48:50.695Z,1.4
2018-12-01T01:49:59.873Z,1.4
2018-12-01T01:51:09.042Z,1.4
2018-12-01T01:52:18.226Z,1.4
2018-12-01T01:53:27.430Z,1.4
2018-12-01T01:54:36.682Z,1.5
2018-12-01T01:55:45.780Z,1.4
2018-12-01T01:56:54.954Z,1.4
2018-12-01T01:58:04.190Z,1.4
2018-12-01T01:59:13.324Z,1.4
2018-12-01T02:00:22.692Z,1.4
2018-12-01T02:01:31.719Z,1.4
2018-12-01T02:02:40.913Z,1.4
2018-12-01T02:03:50.157Z,1.4
2018-12-01T02:04:59.390Z,1.5
2018-12-01T02:06:08.435Z,1.5
2018-12-01T02:07:17.636Z,1.5
2018-12-01T02:08:26.867Z,1.5
2018-12-01T02:09:36.002Z,1.5
2018-12-01T02:10:45.232Z,1.5
2018-12-01T02:11:54.399Z,1.5
2018-12-01T02:13:03.654Z,1.5
2018-12-01T02:14:12.829Z,1.4
2018-12-01T02:15:21.926Z,1.4
2018-12-01T02:16:31.240Z,1.4
2018-12-01T02:17:40.914Z,1.4
2018-12-01T02:18:50.080Z,1.4
2018-12-01T02:19:59.368Z,1.4
2018-12-01T02:21:07.976Z,1.4
2018-12-01T02:22:17.355Z,1.5
2018-12-01T02:23:26.571Z,1.4
2018-12-01T02:24:36.150Z,1.4
2018-12-01T02:25:44.911Z,1.5
2018-12-01T02:26:54.216Z,1.5
2018-12-01T02:28:03.971Z,1.5
2018-12-01T02:29:13.629Z,1.5
2018-12-01T02:30:22.856Z,1.5
2018-12-01T02:31:31.325Z,1.5
2018-12-01T02:32:40.078Z,1.5
2018-12-01T02:33:49.562Z,1.5
2018-12-01T02:34:58.648Z,1.5
2018-12-01T02:36:08.176Z,1.5
2018-12-01T02:37:16.903Z,1.5
2018-12-01T02:38:26.239Z,1.5
2018-12-01T02:39:35.424Z,1.5
2018-12-01T02:40:45.131Z,1.5
2018-12-01T02:41:54.168Z,1.5
2018-12-01T02:43:04.648Z,1.5
2018-12-01T02:44:12.013Z,1.5
2018-12-01T02:45:20.806Z,1.5
2018-12-01T02:46:29.996Z,1.5
2018-12-01T02:47:39.142Z,1.5
2018-12-01T02:48:48.431Z,1.5
2018-12-01T02:49:57.545Z,1.5
2018-12-01T02:51:07.410Z,1.5
2018-12-01T02:52:17.020Z,1.5
2018-12-01T02:53:26.261Z,1.5
2018-12-01T02:54:34.802Z,1.5
2018-12-01T02:55:44.276Z,1.5
2018-12-01T02:56:52.685Z,1.5
2018-12-01T02:58:01.823Z,1.5
2018-12-01T02:59:11.050Z,1.5
2018-12-01T03:00:20.319Z,1.5
2018-12-01T03:01:29.398Z,1.5
2018-12-01T03:02:38.617Z,1.5
2018-12-01T03:03:47.811Z,1.5
2018-12-01T03:04:57.014Z,1.5
2018-12-01T03:06:06.145Z,1.5
2018-12-01T03:07:15.489Z,1.5
2018-12-01T03:08:24.530Z,1.5
2018-12-01T03:09:33.746Z,1.5
2018-12-01T03:10:43.192Z,1.5
2018-12-01T03:11:52.114Z,1.5
2018-12-01T03:13:01.927Z,1.5
2018-12-01T03:14:10.456Z,1.5
2018-12-01T03:15:19.877Z,1.5
2018-12-01T03:16:28.832Z,1.5
2018-12-01T03:17:38.230Z,1.5
2018-12-01T03:18:47.279Z,1.5
2018-12-01T03:19:56.427Z,1.5
2018-12-01T03:21:05.600Z,1.5
2018-12-01T03:22:14.828Z,1.5
2018-12-01T03:23:24.382Z,1.5
2018-12-01T03:24:33.585Z,1.5
2018-12-01T03:25:42.892Z,1.5
2018-12-01T03:26:51.524Z,1.5
2018-12-01T03:28:00.754Z,1.5
2018-12-01T03:29:09.899Z,1.5
2018-12-01T03:30:19.705Z,1.5
2018-12-01T03:31:28.888Z,1.5
2018-12-01T03:32:37.509Z,1.5
2018-12-01T03:33:46.709Z,1.5
2018-12-01T03:34:55.893Z,1.5
2018-12-01T03:36:05.037Z,1.6
2018-12-01T03:37:14.388Z,1.5
2018-12-01T03:38:24.174Z,1.5
2018-12-01T03:39:32.948Z,1.5
2018-12-01T03:40:42.247Z,1.5
2018-12-01T03:41:51.103Z,1.5
2018-12-01T03:43:00.202Z,1.5
2018-12-01T03:44:09.496Z,1.5
2018-12-01T03:45:18.625Z,1.5
2018-12-01T03:46:27.754Z,1.5
2018-12-01T03:47:36.932Z,1.5
2018-12-01T03:48:46.173Z,1.5
2018-12-01T03:49:55.303Z,1.5
2018-12-01T03:51:05.713Z,1.5
2018-12-01T03:52:14.752Z,1.5
2018-12-01T03:53:23.207Z,1.5
2018-12-01T03:54:32.173Z,1.6
2018-12-01T03:55:41.224Z,1.6
2018-12-01T03:56:50.514Z,1.6
2018-12-01T03:57:59.687Z,1.6
2018-12-01T03:59:09.195Z,1.6
2018-12-01T04:00:18.032Z,1.6
2018-12-01T04:01:27.187Z,1.6
2018-12-01T04:02:36.370Z,1.6
2018-12-01T04:03:45.559Z,1.6
2018-12-01T04:04:54.767Z,1.6
2018-12-01T04:06:03.938Z,1.6
2018-12-01T04:07:13.253Z,1.6
2018-12-01T04:08:22.308Z,1.6
2018-12-01T04:09:31.497Z,1.6
2018-12-01T04:10:41.443Z,1.6
2018-12-01T04:11:50.958Z,1.6
2018-12-01T04:12:59.073Z,1.6
2018-12-01T04:14:08.257Z,1.6
2018-12-01T04:15:17.443Z,1.6
2018-12-01T04:16:26.670Z,1.6
2018-12-01T04:17:35.873Z,1.6
2018-12-01T04:18:45.024Z,1.7
2018-12-01T04:19:54.206Z,1.7
2018-12-01T04:21:03.401Z,1.7
2018-12-01T04:22:12.580Z,1.7
2018-12-01T04:23:21.783Z,1.7
2018-12-01T04:24:30.983Z,1.7
2018-12-01T04:25:40.177Z,1.7
2018-12-01T04:26:49.359Z,1.7
2018-12-01T04:27:58.563Z,1.7
2018-12-01T04:29:07.761Z,1.7
2018-12-01T04:30:16.943Z,1.7
2018-12-01T04:31:26.174Z,1.7
2018-12-01T04:32:35.331Z,1.6
2018-12-01T04:33:44.485Z,1.7
2018-12-01T04:34:53.692Z,1.7
2018-12-01T04:36:02.861Z,1.7
2018-12-01T04:37:12.057Z,1.7
2018-12-01T04:38:21.247Z,1.7
2018-12-01T04:39:30.435Z,1.7
2018-12-01T04:40:39.623Z,1.8
2018-12-01T04:41:48.815Z,1.8
2018-12-01T04:42:58.046Z,1.8
2018-12-01T04:44:07.292Z,1.8
2018-12-01T04:45:16.378Z,1.7
2018-12-01T04:46:25.582Z,1.7
2018-12-01T04:47:34.776Z,1.7
2018-12-01T04:48:44.005Z,1.7
2018-12-01T04:49:53.162Z,1.7
2018-12-01T04:51:02.357Z,1.8
2018-12-01T04:52:11.543Z,1.8
2018-12-01T04:53:20.752Z,1.8
2018-12-01T04:54:29.932Z,1.8
2018-12-01T04:55:39.126Z,1.8
2018-12-01T04:56:48.321Z,1.8
2018-12-01T04:57:57.525Z,1.9
2018-12-01T04:59:06.738Z,1.9
2018-12-01T05:00:15.904Z,1.9
2018-12-01T05:01:25.102Z,1.9
2018-12-01T05:02:34.276Z,1.9
2018-12-01T05:03:43.473Z,1.9
2018-12-01T05:04:52.710Z,1.9
2018-12-01T05:06:01.876Z,1.9
2018-12-01T05:07:11.057Z,1.9
2018-12-01T05:08:20.253Z,1.9
2018-12-01T05:09:29.469Z,1.9
2018-12-01T05:10:38.634Z,1.9
2018-12-01T05:11:47.960Z,1.9
2018-12-01T05:12:57.039Z,1.9
2018-12-01T05:14:06.217Z,2
2018-12-01T05:15:15.458Z,2
2018-12-01T05:16:24.625Z,2
2018-12-01T05:17:33.815Z,2
2018-12-01T05:18:42.997Z,2
2018-12-01T05:19:52.201Z,2
2018-12-01T05:21:01.383Z,2
2018-12-01T05:22:10.589Z,2.1
2018-12-01T05:23:19.819Z,2
2018-12-01T05:24:29.023Z,2
2018-12-01T05:25:38.324Z,2
2018-12-01T05:26:48.402Z,2.1
2018-12-01T05:27:58.475Z,2.1
2018-12-01T05:29:06.706Z,2.1
2018-12-01T05:30:16.095Z,2.1
2018-12-01T05:31:25.185Z,2.1
2018-12-01T05:32:34.580Z,2.2
2018-12-01T05:33:42.744Z,2.2
2018-12-01T05:34:51.872Z,2.2
2018-12-01T05:36:01.196Z,2.2
2018-12-01T05:37:10.237Z,2.2
2018-12-01T05:38:19.948Z,2.2
2018-12-01T05:39:28.628Z,2.2
2018-12-01T05:40:38.590Z,2.2
2018-12-01T05:41:46.960Z,2.3
2018-12-01T05:42:56.818Z,2.3
2018-12-01T05:44:06.539Z,2.3
2018-12-01T05:45:15.089Z,2.2
2018-12-01T05:46:23.858Z,2.2
2018-12-01T05:47:34.217Z,2.3
2018-12-01T05:48:42.177Z,2.3
2018-12-01T05:49:51.839Z,2.3
2018-12-01T05:51:00.551Z,2.3
2018-12-01T05:52:09.753Z,2.3
2018-12-01T05:53:19.027Z,2.3
2018-12-01T05:54:28.219Z,2.3
2018-12-01T05:55:37.357Z,2.4
2018-12-01T05:56:46.607Z,2.4
2018-12-01T05:57:55.839Z,2.4
2018-12-01T05:59:05.163Z,2.4
2018-12-01T06:00:14.168Z,2.4
2018-12-01T06:01:23.366Z,2.4
2018-12-01T06:02:32.566Z,2.4
2018-12-01T06:03:41.821Z,2.4
2018-12-01T06:04:50.977Z,2.4
2018-12-01T06:06:00.187Z,2.4
2018-12-01T06:07:09.400Z,2.4
2018-12-01T06:08:18.582Z,2.4
2018-12-01T06:09:27.811Z,2.4
2018-12-01T06:10:37.007Z,2.4
2018-12-01T06:11:46.221Z,2.4
2018-12-01T06:12:55.409Z,2.4
2018-12-01T06:14:04.589Z,2.4
2018-12-01T06:15:13.898Z,2.4
2018-12-01T06:16:23.001Z,2.4
2018-12-01T06:17:32.251Z,2.4
2018-12-01T06:18:41.475Z,2.5
2018-12-01T06:19:50.611Z,2.5
2018-12-01T06:20:59.815Z,2.4
2018-12-01T06:22:09.018Z,2.5
2018-12-01T06:23:18.247Z,2.5
2018-12-01T06:24:27.519Z,2.5
2018-12-01T06:25:36.627Z,2.5
2018-12-01T06:26:45.829Z,2.5
2018-12-01T06:27:55.025Z,2.5
2018-12-01T06:29:04.262Z,2.5
2018-12-01T06:30:13.449Z,2.5
2018-12-01T06:31:22.656Z,2.5
2018-12-01T06:32:31.922Z,2.5
2018-12-01T06:33:41.122Z,2.5
2018-12-01T06:34:50.262Z,2.5
2018-12-01T06:35:59.466Z,2.5
2018-12-01T06:37:08.670Z,2.5
2018-12-01T06:38:17.891Z,2.5
2018-12-01T06:39:27.116Z,2.5
2018-12-01T06:40:36.301Z,2.5
2018-12-01T06:41:45.511Z,2.6
2018-12-01T06:42:54.698Z,2.6
2018-12-01T06:44:03.910Z,2.6
2018-12-01T06:45:13.135Z,2.6
2018-12-01T06:46:22.323Z,2.6
2018-12-01T06:47:31.545Z,2.6
2018-12-01T06:48:40.822Z,2.6
2018-12-01T06:49:49.955Z,2.6
2018-12-01T06:50:59.162Z,2.6
2018-12-01T06:52:08.362Z,2.6
2018-12-01T06:53:17.578Z,2.6
2018-12-01T06:54:26.796Z,2.6
2018-12-01T06:55:35.988Z,2.6
2018-12-01T06:56:45.201Z,2.7
2018-12-01T06:57:54.408Z,2.7
2018-12-01T06:59:03.685Z,2.7
2018-12-01T07:00:12.823Z,2.7
2018-12-01T07:01:22.036Z,2.7
2018-12-01T07:02:31.245Z,2.7
2018-12-01T07:03:40.460Z,2.8
2018-12-01T07:04:49.668Z,2.8
2018-12-01T07:05:58.880Z,2.8
2018-12-01T07:07:08.120Z,2.8
2018-12-01T07:08:17.796Z,2.8
2018-12-01T07:09:26.513Z,2.8
2018-12-01T07:10:35.742Z,2.8
2018-12-01T07:11:44.957Z,2.8
2018-12-01T07:12:54.205Z,2.8
2018-12-01T07:14:03.373Z,2.8
2018-12-01T07:15:12.608Z,2.8
2018-12-01T07:16:21.807Z,2.8
2018-12-01T07:17:31.030Z,2.8
2018-12-01T07:18:40.239Z,2.8
2018-12-01T07:19:49.425Z,2.9
2018-12-01T07:20:58.659Z,2.9
2018-12-01T07:22:07.879Z,2.8
2018-12-01T07:23:17.117Z,2.9
2018-12-01T07:24:26.291Z,2.9
2018-12-01T07:25:35.517Z,2.9
2018-12-01T07:26:44.763Z,2.9
2018-12-01T07:27:53.927Z,2.9
2018-12-01T07:29:03.176Z,2.9
2018-12-01T07:30:12.362Z,2.9
2018-12-01T07:31:21.586Z,2.9
2018-12-01T07:32:30.820Z,2.9
2018-12-01T07:33:40.073Z,3
2018-12-01T07:34:49.234Z,3
2018-12-01T07:35:58.539Z,3
2018-12-01T07:37:07.714Z,3
2018-12-01T07:38:16.880Z,3
2018-12-01T07:39:26.104Z,3
2018-12-01T07:40:35.322Z,3
2018-12-01T07:41:44.546Z,3
2018-12-01T07:42:53.755Z,3
2018-12-01T07:44:02.977Z,3
2018-12-01T07:45:12.191Z,3
2018-12-01T07:46:21.399Z,3
2018-12-01T07:47:30.657Z,3.1
2018-12-01T07:48:39.926Z,3.1
2018-12-01T07:49:49.062Z,3.1
2018-12-01T07:50:58.298Z,3.1
2018-12-01T07:52:07.497Z,3.1
2018-12-01T07:53:17.477Z,3.1
2018-12-01T07:54:25.954Z,3.1
2018-12-01T07:55:35.233Z,3.1
2018-12-01T07:56:44.385Z,3.2
2018-12-01T07:57:53.608Z,3.2
2018-12-01T07:59:02.839Z,3.2
2018-12-01T08:00:12.047Z,3.2
2018-12-01T08:01:21.264Z,3.2
2018-12-01T08:02:30.516Z,3.2
2018-12-01T08:03:39.740Z,3.2
2018-12-01T08:04:48.946Z,3.2
2018-12-01T08:05:58.163Z,3.3
2018-12-01T08:07:07.382Z,3.3
2018-12-01T08:08:16.609Z,3.3
2018-12-01T08:09:25.841Z,3.3
2018-12-01T08:10:35.048Z,3.3
2018-12-01T08:11:44.280Z,3.3
2018-12-01T08:12:53.515Z,3.3
2018-12-01T08:14:02.784Z,3.3
2018-12-01T08:15:11.965Z,3.4
2018-12-01T08:16:21.204Z,3.4
2018-12-01T08:17:30.505Z,3.5
2018-12-01T08:18:39.639Z,3.4
2018-12-01T08:19:48.871Z,3.4
2018-12-01T08:20:58.111Z,3.5
2018-12-01T08:22:07.336Z,3.5
2018-12-01T08:23:16.558Z,3.5
2018-12-01T08:24:25.846Z,3.5
2018-12-01T08:25:35.284Z,3.6
2018-12-01T08:26:44.270Z,3.5
2018-12-01T08:27:53.518Z,3.6
2018-12-01T08:29:02.734Z,3.5
2018-12-01T08:30:11.978Z,3.6
2018-12-01T08:31:21.205Z,3.6
2018-12-01T08:32:30.455Z,3.7
2018-12-01T08:33:39.679Z,3.7
2018-12-01T08:34:48.908Z,3.6
2018-12-01T08:35:58.147Z,3.6
2018-12-01T08:37:07.390Z,3.7
2018-12-01T08:38:16.637Z,3.6
2018-12-01T08:39:25.852Z,3.7
2018-12-01T08:40:35.087Z,3.6
2018-12-01T08:41:44.323Z,3.6
2018-12-01T08:42:53.560Z,3.7
2018-12-01T08:44:02.894Z,3.7
2018-12-01T08:45:12.067Z,3.8
2018-12-01T08:46:21.268Z,3.8
2018-12-01T08:47:30.512Z,4
2018-12-01T08:48:39.822Z,4
2018-12-01T08:49:48.986Z,4.1
2018-12-01T08:50:58.404Z,4.1
2018-12-01T08:52:07.526Z,4.1
2018-12-01T08:53:16.745Z,4.1
2018-12-01T08:54:25.945Z,4.1
2018-12-01T08:55:35.186Z,4.1
2018-12-01T08:56:44.429Z,4.2
2018-12-01T08:57:53.673Z,4.3
2018-12-01T08:59:02.925Z,4.4
2018-12-01T09:00:12.186Z,4.4
2018-12-01T09:01:21.420Z,4.4
2018-12-01T09:02:30.704Z,4.5
2018-12-01T09:03:39.961Z,4.7
2018-12-01T09:04:49.171Z,4.7
2018-12-01T09:05:58.422Z,4.7
2018-12-01T09:07:07.677Z,4.7
2018-12-01T09:08:16.957Z,4.7
2018-12-01T09:09:26.203Z,4.7
2018-12-01T09:10:35.443Z,4.7
2018-12-01T09:11:44.724Z,4.7
2018-12-01T09:12:53.973Z,4.6
2018-12-01T09:14:03.229Z,4.7
2018-12-01T09:15:12.488Z,4.8
2018-12-01T09:16:21.752Z,4.6
2018-12-01T09:17:31.023Z,4.7
2018-12-01T09:18:40.284Z,4.6
2018-12-01T09:19:49.547Z,4.5
2018-12-01T09:20:58.811Z,4.6
2018-12-01T09:22:08.080Z,4.6
2018-12-01T09:23:17.373Z,4.6
2018-12-01T09:24:26.614Z,4.6
2018-12-01T09:25:35.884Z,4.6
2018-12-01T09:26:45.187Z,4.7
2018-12-01T09:27:54.550Z,4.8
2018-12-01T09:29:03.695Z,4.7
2018-12-01T09:30:12.960Z,4.9
2018-12-01T09:31:22.225Z,4.8
2018-12-01T09:32:31.481Z,4.9
2018-12-01T09:33:40.809Z,4.9
2018-12-01T09:34:50.124Z,4.9
2018-12-01T09:35:59.274Z,4.9
2018-12-01T09:37:08.541Z,4.8
2018-12-01T09:38:17.819Z,4.9
2018-12-01T09:39:27.064Z,5
2018-12-01T09:40:36.339Z,4.9
2018-12-01T09:41:45.610Z,4.9
2018-12-01T09:42:54.873Z,4.9
2018-12-01T09:44:04.195Z,4.9
2018-12-01T09:45:13.414Z,4.9
2018-12-01T09:46:22.700Z,4.9
2018-12-01T09:47:31.945Z,4.9
2018-12-01T09:48:41.252Z,4.9
2018-12-01T09:49:50.476Z,4.8
2018-12-01T09:50:59.745Z,4.8
2018-12-01T09:52:09.004Z,4.8
2018-12-01T09:53:18.283Z,4.9
2018-12-01T09:54:27.625Z,4.9
2018-12-01T09:55:36.819Z,5
2018-12-01T09:56:46.097Z,5.1
2018-12-01T09:57:55.361Z,5.3
2018-12-01T09:59:04.645Z,5.2
2018-12-01T10:00:13.894Z,5.3
2018-12-01T10:01:23.243Z,5.5
2018-12-01T10:02:32.416Z,5.6
2018-12-01T10:03:41.707Z,5.6
2018-12-01T10:04:50.963Z,5.9
2018-12-01T10:06:01.902Z,5.8
2018-12-01T10:07:11.190Z,5.6
2018-12-01T10:08:20.457Z,5.4
2018-12-01T10:09:29.715Z,5.7
2018-12-01T10:10:39.004Z,6.1
2018-12-01T10:11:50.515Z,5.9
2018-12-01T10:12:57.580Z,6
2018-12-01T10:14:06.825Z,6.1
2018-12-01T10:15:16.115Z,6
2018-12-01T10:16:25.394Z,6.1
2018-12-01T10:17:34.683Z,5.9
2018-12-01T10:18:43.961Z,6
2018-12-01T10:19:53.240Z,6
2018-12-01T10:21:02.524Z,6.3
2018-12-01T10:22:11.842Z,6.1
2018-12-01T10:23:21.147Z,6
2018-12-01T10:24:30.398Z,6.3
2018-12-01T10:25:39.727Z,6.1
2018-12-01T10:26:48.994Z,6
2018-12-01T10:27:58.286Z,6.5
2018-12-01T10:29:07.558Z,6.3
2018-12-01T10:30:16.864Z,7
2018-12-01T10:31:26.158Z,7.2
2018-12-01T10:32:35.471Z,7.1
2018-12-01T10:33:44.756Z,6.5
2018-12-01T10:34:54.058Z,6.5
2018-12-01T10:36:03.542Z,6.8
2018-12-01T10:37:12.658Z,6.8
2018-12-01T10:38:22.147Z,6.9
2018-12-01T10:39:31.269Z,6.8
2018-12-01T10:40:40.569Z,7.1
2018-12-01T10:41:49.891Z,7.1
2018-12-01T10:42:59.207Z,7.6
2018-12-01T10:44:08.559Z,7.6
2018-12-01T10:45:17.810Z,7.5
2018-12-01T10:46:27.439Z,7.5
2018-12-01T10:47:36.442Z,7
2018-12-01T10:48:45.772Z,7
2018-12-01T10:49:55.062Z,7.4
2018-12-01T10:51:04.525Z,7.2
2018-12-01T10:52:13.867Z,6.7
2018-12-01T10:53:23.969Z,6.9
2018-12-01T10:54:32.421Z,7.2
2018-12-01T10:55:41.668Z,7
2018-12-01T10:56:50.980Z,6.7
2018-12-01T10:58:00.297Z,6.6
2018-12-01T10:59:09.642Z,6.8
2018-12-01T11:00:18.951Z,6.8
2018-12-01T11:01:28.267Z,6.6
2018-12-01T11:02:37.593Z,6.4
2018-12-01T11:03:46.898Z,6.3
2018-12-01T11:04:56.228Z,6.5
2018-12-01T11:06:05.539Z,6.4
2018-12-01T11:08:24.195Z,6.7
2018-12-01T11:09:33.529Z,6.7
2018-12-01T11:10:42.816Z,6.6
2018-12-01T11:11:52.181Z,6.7
2018-12-01T11:13:01.566Z,6.4
2018-12-01T11:14:10.813Z,6.6
2018-12-01T11:15:20.090Z,6.7
2018-12-01T11:16:29.403Z,6.8
2018-12-01T11:17:38.744Z,7.1
2018-12-01T11:18:48.066Z,6.7
2018-12-01T11:19:57.384Z,6.9
2018-12-01T11:21:06.661Z,6.7
2018-12-01T11:22:16.050Z,6.6
2018-12-01T11:23:25.329Z,6.9
2018-12-01T11:24:34.635Z,6.8
2018-12-01T11:25:43.958Z,6.7
2018-12-01T11:26:53.266Z,6.5
2018-12-01T11:28:02.575Z,6.5
2018-12-01T11:29:11.970Z,6.5
2018-12-01T11:30:21.250Z,6.4
2018-12-01T11:31:30.591Z,6.6
2018-12-01T11:32:39.866Z,6.7
2018-12-01T11:33:49.178Z,7.1
2018-12-01T11:34:58.512Z,7.1
2018-12-01T11:36:07.895Z,7.4
2018-12-01T11:37:17.148Z,7.3
2018-12-01T11:38:26.460Z,7.1
2018-12-01T11:39:35.773Z,6.8
2018-12-01T11:40:45.092Z,7.1
2018-12-01T11:41:54.408Z,7
2018-12-01T11:43:03.736Z,7.1
2018-12-01T11:44:13.072Z,7
2018-12-01T11:45:22.376Z,6.9
2018-12-01T11:46:32.031Z,7
2018-12-01T11:47:41.403Z,7.3
2018-12-01T11:48:50.851Z,7.5
2018-12-01T11:49:59.676Z,7.5
2018-12-01T11:51:08.987Z,7.5
2018-12-01T11:52:18.312Z,7.5
2018-12-01T11:53:27.629Z,7.4
2018-12-01T11:54:36.958Z,7.3
2018-12-01T11:55:46.321Z,7.3
2018-12-01T11:56:55.653Z,7.2
2018-12-01T11:58:04.930Z,7.3
2018-12-01T11:59:14.263Z,7.1
2018-12-01T12:00:23.614Z,6.9
2018-12-01T12:01:32.915Z,7.1
2018-12-01T12:02:42.324Z,7
2018-12-01T12:03:51.581Z,7
2018-12-01T12:05:00.884Z,7
2018-12-01T12:06:10.232Z,7.1
2018-12-01T12:07:19.538Z,7
2018-12-01T12:08:28.914Z,7.2
2018-12-01T12:09:38.193Z,7
2018-12-01T12:10:47.528Z,7.1
2018-12-01T12:11:56.863Z,7.2
2018-12-01T12:13:06.512Z,7.2
2018-12-01T12:14:15.520Z,7.1
2018-12-01T12:15:24.824Z,6.9
2018-12-01T12:16:34.138Z,6.9
2018-12-01T12:17:43.497Z,6.9
2018-12-01T12:18:52.818Z,6.9
2018-12-01T12:20:02.173Z,6.9
2018-12-01T12:21:11.446Z,6.9
2018-12-01T12:22:20.763Z,6.9
2018-12-01T12:23:30.108Z,7
2018-12-01T12:24:39.422Z,7.1
2018-12-01T12:25:48.756Z,7.2
2018-12-01T12:26:58.076Z,7.2
2018-12-01T12:28:07.402Z,7.2
2018-12-01T12:29:16.741Z,7.3
2018-12-01T12:30:26.248Z,7.3
2018-12-01T12:31:35.375Z,7.4
2018-12-01T12:32:44.752Z,7.3
2018-12-01T12:33:54.053Z,7.2
2018-12-01T12:35:03.377Z,7.3
2018-12-01T12:36:12.715Z,7.4
2018-12-01T12:37:22.082Z,7.5
2018-12-01T12:38:31.392Z,7.4
2018-12-01T12:39:40.783Z,7.4
2018-12-01T12:40:50.029Z,7.3
2018-12-01T12:41:59.349Z,7.4
2018-12-01T12:43:08.679Z,7.4
2018-12-01T12:44:18.040Z,7.4
2018-12-01T12:45:27.347Z,7.3
2018-12-01T12:46:36.679Z,7.4
2018-12-01T12:47:46.009Z,7.3
2018-12-01T12:48:55.327Z,7.5
2018-12-01T12:50:04.669Z,7.4
2018-12-01T12:51:13.987Z,7.3
2018-12-01T12:52:23.331Z,7.2
2018-12-01T12:53:32.654Z,7.3
2018-12-01T12:54:41.997Z,7.1
2018-12-01T12:55:51.386Z,7.4
2018-12-01T12:57:00.680Z,7.5
2018-12-01T12:58:10.003Z,7.4
2018-12-01T12:59:19.340Z,7.3
2018-12-01T13:00:28.675Z,7.2
2018-12-01T13:01:38.029Z,7.3
2018-12-01T13:02:47.343Z,7.3
2018-12-01T13:03:56.694Z,7.5
2018-12-01T13:05:06.016Z,7.3
2018-12-01T13:06:15.338Z,7.2
2018-12-01T13:07:24.703Z,7.2
2018-12-01T13:08:34.003Z,7.2
2018-12-01T13:09:43.347Z,7.3
2018-12-01T13:10:52.680Z,7.3
2018-12-01T13:12:01.999Z,7.3
2018-12-01T13:13:11.358Z,7.3
2018-12-01T13:14:20.659Z,7.2
2018-12-01T13:15:30.029Z,7.2
2018-12-01T13:16:39.325Z,7.3
2018-12-01T13:17:48.649Z,7.3
2018-12-01T13:18:57.990Z,7.2
2018-12-01T13:20:07.521Z,7.1
2018-12-01T13:21:16.656Z,7.3
2018-12-01T13:22:26.478Z,7.2
2018-12-01T13:23:35.313Z,7.2
2018-12-01T13:24:44.648Z,7.2
2018-12-01T13:25:53.967Z,7.2
2018-12-01T13:27:03.285Z,7.2
2018-12-01T13:28:12.625Z,7.2
2018-12-01T13:29:21.953Z,7.3
2018-12-01T13:30:31.282Z,7.3
2018-12-01T13:31:40.677Z,7.3
2018-12-01T13:32:49.952Z,7.4
2018-12-01T13:33:59.271Z,7.3
2018-12-01T13:35:08.602Z,7.3
2018-12-01T13:36:17.922Z,7.2
2018-12-01T13:37:27.314Z,7.2
2018-12-01T13:38:36.565Z,7.3
2018-12-01T13:39:45.915Z,7.2
2018-12-01T13:40:55.236Z,7.2
2018-12-01T13:42:04.597Z,7.2
2018-12-01T13:43:13.898Z,7.2
2018-12-01T13:44:23.225Z,7.3
2018-12-01T13:45:32.564Z,7.2
2018-12-01T13:46:41.928Z,7.2
2018-12-01T13:47:51.214Z,7.2
2018-12-01T13:49:02.165Z,7.2
2018-12-01T13:50:11.473Z,7.2
2018-12-01T13:51:20.805Z,7.2
2018-12-01T13:52:30.197Z,7.3
2018-12-01T13:53:39.461Z,7.3
2018-12-01T13:54:48.810Z,7.3
2018-12-01T13:55:58.198Z,7.3
2018-12-01T13:57:07.422Z,7.4
2018-12-01T13:58:16.766Z,7.3
2018-12-01T13:59:26.085Z,7.3
2018-12-01T14:00:35.426Z,7.3
2018-12-01T14:01:44.742Z,7.3
2018-12-01T14:02:54.160Z,7.3
2018-12-01T14:04:03.389Z,7.3
2018-12-01T14:05:12.709Z,7.3
2018-12-01T14:06:22.051Z,7.2
2018-12-01T14:07:31.356Z,7.2
2018-12-01T14:08:40.718Z,7.3
2018-12-01T14:09:49.998Z,7.2
2018-12-01T14:10:59.320Z,7.2
2018-12-01T14:12:08.675Z,7.2
2018-12-01T14:13:18.036Z,7.2
2018-12-01T14:14:27.297Z,7.2
2018-12-01T14:15:36.734Z,7.3
2018-12-01T14:16:45.933Z,7.3
2018-12-01T14:17:55.267Z,7.3
2018-12-01T14:19:04.602Z,7.2
2018-12-01T14:20:13.925Z,7.1
2018-12-01T14:21:23.310Z,7.1
2018-12-01T14:22:32.555Z,7.1
2018-12-01T14:23:41.934Z,7.1
2018-12-01T14:24:51.191Z,7.1
2018-12-01T14:26:00.629Z,7.1
2018-12-01T14:27:09.829Z,7.1
2018-12-01T14:28:19.180Z,7.1
2018-12-01T14:29:28.470Z,7.1
2018-12-01T14:30:37.801Z,7
2018-12-01T14:31:47.122Z,7
2018-12-01T14:32:56.422Z,7
2018-12-01T14:34:05.745Z,7
2018-12-01T14:35:15.056Z,7
2018-12-01T14:36:24.375Z,7
2018-12-01T14:37:33.727Z,7
2018-12-01T14:38:43.029Z,7
2018-12-01T14:39:52.320Z,7
2018-12-01T14:41:01.635Z,6.9
2018-12-01T14:42:10.950Z,6.8
2018-12-01T14:43:20.310Z,6.8
2018-12-01T14:44:29.565Z,6.9
2018-12-01T14:45:38.886Z,6.9
2018-12-01T14:46:48.196Z,6.9
2018-12-01T14:47:57.496Z,6.8
2018-12-01T14:49:06.828Z,6.8
2018-12-01T14:50:16.137Z,6.8
2018-12-01T14:51:25.443Z,6.8
2018-12-01T14:52:34.733Z,6.8
2018-12-01T14:53:44.065Z,6.7
2018-12-01T14:54:53.344Z,6.7
2018-12-01T14:56:02.660Z,6.7
2018-12-01T14:57:12.000Z,6.7
2018-12-01T14:58:21.276Z,6.7
2018-12-01T14:59:30.580Z,6.7
2018-12-01T15:00:39.881Z,6.7
2018-12-01T15:01:49.259Z,6.6
2018-12-01T15:02:58.492Z,6.6
2018-12-01T15:04:07.795Z,6.6
2018-12-01T15:05:17.102Z,6.6
2018-12-01T15:06:26.436Z,6.6
2018-12-01T15:07:35.720Z,6.6
2018-12-01T15:08:45.013Z,6.6
2018-12-01T15:09:54.336Z,6.6
2018-12-01T15:11:03.631Z,6.6
2018-12-01T15:12:12.919Z,6.6
2018-12-01T15:13:22.207Z,6.6
2018-12-01T15:14:31.589Z,6.6
2018-12-01T15:15:40.844Z,6.6
2018-12-01T15:16:50.193Z,6.6
2018-12-01T15:17:59.424Z,6.6
2018-12-01T15:19:08.725Z,6.5
2018-12-01T15:20:18.014Z,6.5
2018-12-01T15:21:27.313Z,6.5
2018-12-01T15:22:36.619Z,6.5
2018-12-01T15:23:45.910Z,6.5
2018-12-01T15:24:55.226Z,6.4
2018-12-01T15:26:04.506Z,6.5
2018-12-01T15:27:13.847Z,6.5
2018-12-01T15:28:23.128Z,6.5
2018-12-01T15:29:32.413Z,6.4
2018-12-01T15:30:41.705Z,6.5
2018-12-01T15:31:50.997Z,6.4
2018-12-01T15:33:00.292Z,6.4
2018-12-01T15:34:09.598Z,6.4
2018-12-01T15:35:18.887Z,6.4
2018-12-01T15:36:28.194Z,6.4
2018-12-01T15:37:37.484Z,6.4
2018-12-01T15:38:46.769Z,6.4
2018-12-01T15:39:56.183Z,6.4
2018-12-01T15:41:05.370Z,6.4
2018-12-01T15:42:14.666Z,6.4
2018-12-01T15:43:23.963Z,6.4
2018-12-01T15:44:33.280Z,6.3
2018-12-01T15:45:42.546Z,6.3
2018-12-01T15:46:51.875Z,6.4
2018-12-01T15:48:01.147Z,6.4
2018-12-01T15:49:10.529Z,6.4
2018-12-01T15:50:19.717Z,6.4
2018-12-01T15:51:29.031Z,6.4
2018-12-01T15:52:41.443Z,6.3
2018-12-01T15:53:47.606Z,6.3
2018-12-01T15:55:00.588Z,6.3
2018-12-01T15:56:06.419Z,6.4
2018-12-01T15:57:15.486Z,6.3
2018-12-01T15:58:24.770Z,6.3